createdAt,value
2019-02-15T00:00:42.964Z,29.98
2019-02-15T00:01:49.863Z,30.65
2019-02-15T00:02:54.988Z,30.82
2019-02-15T00:03:59.812Z,30.32
2019-02-15T00:05:04.853Z,32.30
2019-02-15T00:06:09.792Z,32.45
2019-02-15T00:07:14.552Z,31.37
2019-02-15T00:08:19.623Z,31.15
2019-02-15T00:09:24.513Z,29.63
2019-02-15T00:10:29.285Z,30.88
2019-02-15T00:11:34.176Z,30.68
2019-02-15T00:12:39.100Z,30.45
2019-02-15T00:13:43.898Z,31.70
2019-02-15T00:14:49.727Z,30.97
2019-02-15T00:15:54.621Z,30.08
2019-02-15T00:17:00.382Z,31.05
2019-02-15T00:18:23.521Z,31.75
2019-02-15T00:19:33.777Z,31.17
2019-02-15T00:20:47.015Z,31.68
2019-02-15T00:21:53.506Z,30.60
2019-02-15T00:22:58.282Z,31.23
2019-02-15T00:24:03.119Z,31.17
2019-02-15T00:25:08.132Z,30.12
2019-02-15T00:26:12.995Z,31.80
2019-02-15T00:27:17.952Z,32.30
2019-02-15T00:28:22.793Z,30.27
2019-02-15T00:29:27.621Z,28.83
2019-02-15T00:30:32.670Z,29.30
2019-02-15T00:31:37.560Z,29.37
2019-02-15T00:32:42.313Z,30.00
2019-02-15T00:33:47.198Z,31.45
2019-02-15T00:34:52.027Z,31.48
2019-02-15T00:35:56.836Z,30.15
2019-02-15T00:37:02.020Z,30.30
2019-02-15T00:38:06.899Z,28.38
2019-02-15T00:39:12.916Z,31.25
2019-02-15T00:40:17.843Z,31.95
2019-02-15T00:41:22.748Z,31.17
2019-02-15T00:42:28.240Z,30.10
2019-02-15T00:43:33.117Z,31.27
2019-02-15T00:44:37.959Z,30.62
2019-02-15T00:46:16.964Z,30.97
2019-02-15T00:47:33.278Z,29.57
2019-02-15T00:48:38.160Z,30.15
2019-02-15T00:49:48.008Z,29.95
2019-02-15T00:51:08.567Z,31.37
2019-02-15T00:52:38.349Z,31.12
2019-02-15T00:53:59.034Z,28.73
2019-02-15T00:55:24.614Z,29.92
2019-02-15T00:56:37.456Z,29.02
2019-02-15T00:57:55.937Z,30.37
2019-02-15T00:59:18.395Z,29.57
2019-02-15T01:00:42.190Z,29.07
2019-02-15T01:02:04.121Z,28.62
2019-02-15T01:03:36.840Z,30.92
2019-02-15T01:05:06.568Z,30.62
2019-02-15T01:06:32.983Z,28.15
2019-02-15T01:07:59.272Z,28.83
2019-02-15T01:09:29.081Z,28.47
2019-02-15T01:11:04.453Z,28.87
2019-02-15T01:12:12.908Z,28.80
2019-02-15T01:13:20.765Z,31.02
2019-02-15T01:14:25.601Z,30.90
2019-02-15T01:15:30.463Z,31.80
2019-02-15T01:16:35.212Z,31.45
2019-02-15T01:17:40.100Z,30.72
2019-02-15T01:18:45.026Z,32.70
2019-02-15T01:19:49.832Z,32.25
2019-02-15T01:20:54.676Z,30.15
2019-02-15T01:21:59.727Z,30.97
2019-02-15T01:23:04.469Z,32.35
2019-02-15T01:24:09.348Z,30.60
2019-02-15T01:25:14.396Z,29.77
2019-02-15T01:26:41.897Z,27.82
2019-02-15T01:28:03.128Z,25.82
2019-02-15T01:29:28.198Z,23.05
2019-02-15T01:30:51.942Z,22.73
2019-02-15T01:32:21.692Z,24.80
2019-02-15T01:33:37.370Z,23.87
2019-02-15T01:35:16.675Z,23.85
2019-02-15T01:36:32.904Z,23.55
2019-02-15T01:38:15.028Z,23.55
2019-02-15T01:39:44.696Z,24.92
2019-02-15T01:41:08.464Z,23.35
2019-02-15T01:42:41.151Z,25.10
2019-02-15T01:43:52.932Z,23.85
2019-02-15T01:45:19.533Z,25.27
2019-02-15T01:46:39.364Z,25.00
2019-02-15T01:47:46.977Z,24.43
2019-02-15T01:48:51.776Z,24.27
2019-02-15T01:49:56.725Z,23.50
2019-02-15T01:51:01.543Z,25.25
2019-02-15T01:52:06.421Z,25.82
2019-02-15T01:53:11.310Z,27.00
2019-02-15T01:54:16.099Z,26.70
2019-02-15T01:55:20.967Z,26.00
2019-02-15T01:56:25.949Z,26.65
2019-02-15T01:57:31.034Z,26.20
2019-02-15T01:58:35.896Z,24.45
2019-02-15T01:59:40.756Z,24.27
2019-02-15T02:00:45.757Z,24.98
2019-02-15T02:01:50.688Z,24.98
2019-02-15T02:02:55.583Z,25.72
2019-02-15T02:04:00.364Z,25.88
2019-02-15T02:05:05.480Z,24.87
2019-02-15T02:06:10.464Z,23.10
2019-02-15T02:07:15.216Z,26.25
2019-02-15T02:08:23.114Z,24.60
2019-02-15T02:09:28.220Z,25.55
2019-02-15T02:10:33.190Z,26.73
2019-02-15T02:11:38.096Z,25.82
2019-02-15T02:12:42.892Z,26.07
2019-02-15T02:13:49.957Z,27.00
2019-02-15T02:14:54.396Z,24.75
2019-02-15T02:15:59.156Z,26.02
2019-02-15T02:17:04.051Z,26.42
2019-02-15T02:18:08.945Z,27.20
2019-02-15T02:19:13.720Z,26.57
2019-02-15T02:20:18.581Z,27.00
2019-02-15T02:21:23.492Z,26.85
2019-02-15T02:22:28.276Z,26.68
2019-02-15T02:23:33.168Z,26.62
2019-02-15T02:24:38.152Z,25.65
2019-02-15T02:25:42.896Z,25.80
2019-02-15T02:26:47.841Z,25.95
2019-02-15T02:27:52.714Z,25.70
2019-02-15T02:28:57.448Z,26.50
2019-02-15T02:30:02.342Z,26.52
2019-02-15T02:31:07.317Z,26.05
2019-02-15T02:32:12.092Z,26.55
2019-02-15T02:33:16.970Z,26.37
2019-02-15T02:34:21.794Z,27.55
2019-02-15T02:35:26.583Z,25.90
2019-02-15T02:36:51.317Z,27.58
2019-02-15T02:37:56.069Z,25.17
2019-02-15T02:39:00.940Z,26.85
2019-02-15T02:40:06.544Z,26.17
2019-02-15T02:41:11.319Z,26.52
2019-02-15T02:42:16.309Z,28.07
2019-02-15T02:43:21.164Z,26.30
2019-02-15T02:44:25.895Z,24.85
2019-02-15T02:45:30.767Z,27.70
2019-02-15T02:46:35.701Z,25.32
2019-02-15T02:47:40.504Z,26.90
2019-02-15T02:48:45.385Z,27.48
2019-02-15T02:49:50.288Z,24.55
2019-02-15T02:50:55.028Z,24.45
2019-02-15T02:51:59.881Z,25.68
2019-02-15T02:53:05.808Z,24.87
2019-02-15T02:54:10.708Z,25.02
2019-02-15T02:55:15.449Z,27.45
2019-02-15T02:56:20.380Z,27.13
2019-02-15T02:57:25.221Z,26.00
2019-02-15T02:58:30.269Z,23.73
2019-02-15T02:59:35.248Z,25.52
2019-02-15T03:00:40.044Z,24.60
2019-02-15T03:01:44.921Z,24.77
2019-02-15T03:02:49.776Z,23.25
2019-02-15T03:03:54.543Z,24.70
2019-02-15T03:04:59.433Z,23.20
2019-02-15T03:06:04.328Z,22.95
2019-02-15T03:07:09.053Z,24.80
2019-02-15T03:08:13.940Z,24.70
2019-02-15T03:09:18.708Z,24.52
2019-02-15T03:10:23.481Z,23.98
2019-02-15T03:11:28.487Z,25.80
2019-02-15T03:12:33.480Z,25.75
2019-02-15T03:13:38.360Z,25.90
2019-02-15T03:14:43.354Z,24.43
2019-02-15T03:15:48.186Z,25.88
2019-02-15T03:16:55.844Z,24.90
2019-02-15T03:18:00.748Z,23.25
2019-02-15T03:19:05.507Z,23.27
2019-02-15T03:20:10.592Z,24.63
2019-02-15T03:21:15.481Z,23.38
2019-02-15T03:22:20.261Z,24.30
2019-02-15T03:23:25.150Z,24.20
2019-02-15T03:24:30.042Z,24.70
2019-02-15T03:25:34.818Z,23.80
2019-02-15T03:26:39.761Z,25.52
2019-02-15T03:27:44.777Z,25.05
2019-02-15T03:28:49.556Z,24.67
2019-02-15T03:29:54.430Z,24.77
2019-02-15T03:30:59.400Z,25.35
2019-02-15T03:32:04.185Z,24.70
2019-02-15T03:33:09.085Z,25.68
2019-02-15T03:34:13.814Z,23.65
2019-02-15T03:35:18.573Z,24.80
2019-02-15T03:36:41.284Z,25.30
2019-02-15T03:38:03.188Z,24.75
2019-02-15T03:39:20.056Z,23.38
2019-02-15T03:40:43.120Z,23.87
2019-02-15T03:41:47.865Z,23.50
2019-02-15T03:42:52.824Z,23.77
2019-02-15T03:43:57.827Z,24.50
2019-02-15T03:45:02.582Z,24.87
2019-02-15T03:46:07.473Z,25.50
2019-02-15T03:47:13.870Z,23.80
2019-02-15T03:48:18.658Z,23.77
2019-02-15T03:49:23.531Z,25.55
2019-02-15T03:50:28.449Z,25.35
2019-02-15T03:51:33.192Z,22.58
2019-02-15T03:52:38.128Z,24.55
2019-02-15T03:53:42.873Z,26.62
2019-02-15T03:54:47.605Z,24.65
2019-02-15T03:55:52.670Z,27.98
2019-02-15T03:56:57.655Z,25.80
2019-02-15T03:58:02.449Z,26.45
2019-02-15T03:59:07.190Z,25.60
2019-02-15T04:00:13.269Z,26.45
2019-02-15T04:01:18.222Z,26.48
2019-02-15T04:02:23.094Z,26.30
2019-02-15T04:03:27.878Z,25.75
2019-02-15T04:04:32.774Z,27.42
2019-02-15T04:05:37.579Z,25.68
2019-02-15T04:06:42.375Z,25.55
2019-02-15T04:07:47.444Z,24.63
2019-02-15T04:08:52.375Z,26.95
2019-02-15T04:09:57.104Z,25.95
2019-02-15T04:11:02.021Z,25.40
2019-02-15T04:12:07.104Z,26.65
2019-02-15T04:13:12.044Z,25.97
2019-02-15T04:14:17.081Z,27.45
2019-02-15T04:15:22.112Z,27.35
2019-02-15T04:16:26.873Z,25.75
2019-02-15T04:17:31.741Z,24.87
2019-02-15T04:18:36.690Z,24.27
2019-02-15T04:19:41.458Z,25.10
2019-02-15T04:20:46.396Z,25.55
2019-02-15T04:21:51.304Z,24.47
2019-02-15T04:22:56.049Z,26.48
2019-02-15T04:24:01.026Z,25.15
2019-02-15T04:25:06.018Z,26.57
2019-02-15T04:26:10.797Z,25.80
2019-02-15T04:27:16.256Z,26.97
2019-02-15T04:28:21.113Z,26.60
2019-02-15T04:29:25.899Z,26.37
2019-02-15T04:30:30.777Z,25.05
2019-02-15T04:31:35.681Z,24.65
2019-02-15T04:32:40.477Z,26.25
2019-02-15T04:33:45.343Z,26.12
2019-02-15T04:34:50.365Z,25.10
2019-02-15T04:35:55.087Z,25.12
2019-02-15T04:36:59.970Z,24.80
2019-02-15T04:38:04.959Z,26.90
2019-02-15T04:39:09.761Z,23.52
2019-02-15T04:40:14.785Z,24.80
2019-02-15T04:41:19.720Z,25.50
2019-02-15T04:42:24.517Z,25.25
2019-02-15T04:43:29.398Z,24.67
2019-02-15T04:44:42.576Z,24.67
2019-02-15T04:45:40.879Z,23.92
2019-02-15T04:46:45.718Z,26.55
2019-02-15T04:47:50.544Z,25.05
2019-02-15T04:48:55.296Z,25.55
2019-02-15T04:50:00.353Z,30.37
2019-02-15T04:51:05.181Z,40.52
2019-02-15T04:52:10.046Z,30.65
2019-02-15T04:53:14.925Z,45.30
2019-02-15T04:54:19.676Z,26.73
2019-02-15T04:55:24.484Z,27.62
2019-02-15T04:56:29.422Z,31.33
2019-02-15T04:57:34.312Z,26.77
2019-02-15T04:58:39.084Z,25.75
2019-02-15T04:59:43.924Z,27.60
2019-02-15T05:00:49.043Z,25.72
2019-02-15T05:01:53.827Z,25.68
2019-02-15T05:02:58.789Z,24.50
2019-02-15T05:04:03.642Z,27.65
2019-02-15T05:05:08.440Z,26.10
2019-02-15T05:06:13.352Z,25.27
2019-02-15T05:07:18.267Z,25.52
2019-02-15T05:08:22.999Z,26.93
2019-02-15T05:09:27.960Z,26.27
2019-02-15T05:10:33.076Z,29.07
2019-02-15T05:11:37.906Z,26.50
2019-02-15T05:12:42.957Z,26.52
2019-02-15T05:13:47.929Z,25.62
2019-02-15T05:14:53.520Z,26.27
2019-02-15T05:15:58.516Z,26.40
2019-02-15T05:17:03.466Z,28.15
2019-02-15T05:18:08.256Z,28.65
2019-02-15T05:19:13.317Z,27.87
2019-02-15T05:20:18.259Z,26.62
2019-02-15T05:21:23.056Z,27.10
2019-02-15T05:22:28.026Z,27.77
2019-02-15T05:23:32.888Z,27.60
2019-02-15T05:24:40.595Z,25.85
2019-02-15T05:25:45.473Z,25.05
2019-02-15T05:26:50.270Z,24.87
2019-02-15T05:27:55.241Z,25.90
2019-02-15T05:29:00.330Z,27.07
2019-02-15T05:30:05.268Z,25.92
2019-02-15T05:31:10.212Z,25.00
2019-02-15T05:32:15.203Z,24.87
2019-02-15T05:33:19.997Z,26.20
2019-02-15T05:34:24.824Z,26.15
2019-02-15T05:35:29.694Z,23.90
2019-02-15T05:36:34.480Z,24.90
2019-02-15T05:37:39.500Z,24.30
2019-02-15T05:38:44.562Z,25.23
2019-02-15T05:39:49.357Z,24.80
2019-02-15T05:40:54.230Z,24.30
2019-02-15T05:41:59.085Z,24.60
2019-02-15T05:43:03.892Z,24.43
2019-02-15T05:44:08.724Z,24.37
2019-02-15T05:45:13.844Z,24.85
2019-02-15T05:46:18.748Z,23.02
2019-02-15T05:47:23.756Z,25.30
2019-02-15T05:48:28.808Z,24.60
2019-02-15T05:49:33.733Z,25.45
2019-02-15T05:50:38.757Z,23.85
2019-02-15T05:51:43.689Z,25.08
2019-02-15T05:52:48.506Z,25.23
2019-02-15T05:53:53.525Z,24.43
2019-02-15T05:54:59.541Z,24.52
2019-02-15T05:56:04.811Z,26.52
2019-02-15T05:57:10.025Z,25.95
2019-02-15T05:58:14.997Z,24.47
2019-02-15T05:59:19.951Z,23.90
2019-02-15T06:00:24.849Z,24.52
2019-02-15T06:01:29.897Z,25.43
2019-02-15T06:02:34.948Z,24.70
2019-02-15T06:03:39.827Z,25.12
2019-02-15T06:04:44.582Z,23.38
2019-02-15T06:05:49.545Z,24.75
2019-02-15T06:06:54.630Z,24.75
2019-02-15T06:07:59.619Z,24.65
2019-02-15T06:09:05.833Z,24.45
2019-02-15T06:10:11.118Z,25.80
2019-02-15T06:11:16.139Z,25.82
2019-02-15T06:12:21.124Z,27.75
2019-02-15T06:13:26.128Z,26.52
2019-02-15T06:14:31.052Z,26.25
2019-02-15T06:15:35.920Z,25.62
2019-02-15T06:16:40.845Z,23.25
2019-02-15T06:17:45.613Z,25.68
2019-02-15T06:18:50.488Z,26.17
2019-02-15T06:19:55.381Z,25.55
2019-02-15T06:21:00.141Z,29.48
2019-02-15T06:22:05.049Z,27.22
2019-02-15T06:23:09.983Z,25.92
2019-02-15T06:24:14.748Z,25.08
2019-02-15T06:25:19.853Z,25.43
2019-02-15T06:26:24.748Z,24.92
2019-02-15T06:27:29.645Z,26.57
2019-02-15T06:28:34.963Z,25.82
2019-02-15T06:29:40.021Z,26.42
2019-02-15T06:30:44.866Z,26.90
2019-02-15T06:31:49.752Z,25.57
2019-02-15T06:32:54.832Z,25.77
2019-02-15T06:33:59.589Z,25.92
2019-02-15T06:35:04.588Z,24.50
2019-02-15T06:36:09.456Z,24.95
2019-02-15T06:37:14.241Z,26.52
2019-02-15T06:38:19.204Z,23.83
2019-02-15T06:39:24.211Z,24.60
2019-02-15T06:40:29.006Z,24.67
2019-02-15T06:41:33.895Z,25.40
2019-02-15T06:42:38.791Z,25.17
2019-02-15T06:43:43.748Z,22.75
2019-02-15T06:44:48.732Z,24.75
2019-02-15T06:45:53.708Z,24.07
2019-02-15T06:46:58.633Z,24.40
2019-02-15T06:48:03.639Z,24.75
2019-02-15T06:49:08.637Z,24.18
2019-02-15T06:50:16.394Z,24.37
2019-02-15T06:51:21.437Z,23.47
2019-02-15T06:52:26.243Z,24.00
2019-02-15T06:53:31.370Z,26.27
2019-02-15T06:54:36.278Z,22.58
2019-02-15T06:55:41.368Z,25.23
2019-02-15T06:56:46.468Z,25.62
2019-02-15T06:57:51.612Z,22.02
2019-02-15T06:59:18.551Z,23.15
2019-02-15T07:01:00.488Z,24.50
2019-02-15T07:02:30.302Z,27.20
2019-02-15T07:03:43.273Z,24.02
2019-02-15T07:05:19.324Z,22.98
2019-02-15T07:06:24.086Z,22.05
2019-02-15T07:07:29.078Z,23.57
2019-02-15T07:08:34.066Z,25.00
2019-02-15T07:09:39.026Z,24.67
2019-02-15T07:10:43.909Z,24.52
2019-02-15T07:11:48.959Z,25.80
2019-02-15T07:12:53.753Z,47.50
2019-02-15T07:13:58.876Z,31.85
2019-02-15T07:15:03.737Z,29.07
2019-02-15T07:16:08.571Z,25.97
2019-02-15T07:17:13.568Z,24.05
2019-02-15T07:18:18.560Z,24.82
2019-02-15T07:19:23.444Z,23.62
2019-02-15T07:20:28.760Z,22.35
2019-02-15T07:21:34.004Z,23.32
2019-02-15T07:22:38.853Z,23.12
2019-02-15T07:23:43.985Z,23.87
2019-02-15T07:24:48.800Z,21.10
2019-02-15T07:25:53.746Z,23.07
2019-02-15T07:26:58.903Z,21.30
2019-02-15T07:28:03.901Z,21.70
2019-02-15T07:29:08.968Z,23.42
2019-02-15T07:30:15.524Z,22.25
2019-02-15T07:31:20.579Z,23.75
2019-02-15T07:32:25.616Z,22.52
2019-02-15T07:33:30.684Z,23.12
2019-02-15T07:34:35.527Z,23.57
2019-02-15T07:35:40.542Z,22.95
2019-02-15T07:36:47.646Z,23.02
2019-02-15T07:37:53.673Z,22.25
2019-02-15T07:38:58.853Z,21.35
2019-02-15T07:40:03.809Z,21.45
2019-02-15T07:41:08.898Z,23.00
2019-02-15T07:42:13.809Z,21.85
2019-02-15T07:43:18.748Z,21.20
2019-02-15T07:44:23.964Z,21.20
2019-02-15T07:45:28.993Z,21.57
2019-02-15T07:46:33.932Z,21.27
2019-02-15T07:47:39.118Z,21.05
2019-02-15T07:48:43.988Z,21.77
2019-02-15T07:53:20.488Z,21.85
2019-02-15T07:54:26.163Z,21.17
2019-02-15T07:55:31.587Z,20.77
2019-02-15T07:56:36.839Z,21.97
2019-02-15T07:57:41.812Z,21.73
2019-02-15T07:58:46.961Z,21.55
2019-02-15T07:59:52.029Z,19.00
2019-02-15T08:00:56.949Z,19.95
2019-02-15T08:02:02.335Z,19.87
2019-02-15T08:03:07.699Z,21.10
2019-02-15T08:04:12.629Z,19.42
2019-02-15T08:05:17.413Z,20.08
2019-02-15T08:06:22.187Z,20.00
2019-02-15T08:07:27.737Z,19.48
2019-02-15T08:08:33.386Z,19.82
2019-02-15T08:09:38.085Z,19.95
2019-02-15T08:10:42.809Z,19.65
2019-02-15T08:11:48.176Z,17.95
2019-02-15T08:12:53.496Z,20.27
2019-02-15T08:13:58.936Z,20.10
2019-02-15T08:15:04.736Z,18.30
2019-02-15T08:16:09.916Z,19.92
2019-02-15T08:17:14.615Z,22.60
2019-02-15T08:18:19.381Z,19.90
2019-02-15T08:19:24.364Z,26.25
2019-02-15T08:20:29.141Z,24.23
2019-02-15T08:21:33.889Z,22.42
2019-02-15T08:22:38.672Z,24.05
2019-02-15T08:23:43.425Z,20.70
2019-02-15T08:24:48.258Z,20.10
2019-02-15T08:25:53.083Z,20.27
2019-02-15T08:26:57.882Z,20.60
2019-02-15T08:28:02.682Z,20.08
2019-02-15T08:29:07.609Z,20.80
2019-02-15T08:30:12.651Z,19.98
2019-02-15T08:31:17.520Z,20.10
2019-02-15T08:32:22.371Z,19.73
2019-02-15T08:33:27.161Z,17.90
2019-02-15T08:34:31.939Z,17.67
2019-02-15T08:35:36.729Z,19.70
2019-02-15T08:36:41.528Z,19.42
2019-02-15T08:37:46.284Z,20.95
2019-02-15T08:38:51.223Z,19.95
2019-02-15T08:39:55.972Z,20.23
2019-02-15T08:41:08.804Z,17.98
2019-02-15T08:42:13.665Z,18.73
2019-02-15T08:43:18.416Z,20.20
2019-02-15T08:44:23.173Z,19.25
2019-02-15T08:45:27.983Z,19.55
2019-02-15T08:46:32.780Z,19.45
2019-02-15T08:47:37.524Z,18.80
2019-02-15T08:48:46.207Z,18.48
2019-02-15T08:49:48.852Z,18.10
2019-02-15T08:50:53.652Z,18.32
2019-02-15T08:51:58.448Z,19.12
2019-02-15T08:53:03.358Z,19.12
2019-02-15T08:54:08.215Z,19.32
2019-02-15T08:55:13.497Z,19.27
2019-02-15T08:56:18.328Z,18.27
2019-02-15T08:57:23.114Z,19.02
2019-02-15T08:58:27.983Z,19.37
2019-02-15T08:59:32.807Z,17.35
2019-02-15T09:00:37.624Z,18.02
2019-02-15T09:01:42.615Z,17.65
2019-02-15T09:02:47.397Z,18.77
2019-02-15T09:03:52.173Z,18.95
2019-02-15T09:04:56.987Z,19.80
2019-02-15T09:06:01.840Z,20.80
2019-02-15T09:07:06.645Z,19.25
2019-02-15T09:08:11.478Z,19.32
2019-02-15T09:09:16.255Z,19.62
2019-02-15T09:10:21.073Z,20.25
2019-02-15T09:11:25.887Z,19.15
2019-02-15T09:12:30.694Z,16.90
2019-02-15T09:13:35.426Z,18.35
2019-02-15T09:14:40.385Z,18.23
2019-02-15T09:15:45.230Z,17.67
2019-02-15T09:16:50.036Z,18.17
2019-02-15T09:17:54.857Z,18.52
2019-02-15T09:19:00.614Z,18.17
2019-02-15T09:20:06.097Z,19.57
2019-02-15T09:21:11.009Z,18.62
2019-02-15T09:22:15.793Z,19.98
2019-02-15T09:23:20.618Z,18.98
2019-02-15T09:24:25.451Z,18.65
2019-02-15T09:25:30.308Z,18.23
2019-02-15T09:26:35.151Z,18.60
2019-02-15T09:28:01.566Z,18.57
2019-02-15T09:29:09.297Z,17.75
2019-02-15T09:30:14.978Z,17.45
2019-02-15T09:31:19.751Z,18.42
2019-02-15T09:32:24.716Z,18.20
2019-02-15T09:33:30.031Z,19.32
2019-02-15T09:34:34.833Z,19.35
2019-02-15T09:35:39.856Z,18.75
2019-02-15T09:36:44.832Z,18.65
2019-02-15T09:37:49.752Z,19.85
2019-02-15T09:38:55.046Z,19.05
2019-02-15T09:39:59.871Z,18.20
2019-02-15T09:41:04.913Z,18.55
2019-02-15T09:42:09.707Z,20.27
2019-02-15T09:43:14.557Z,19.05
2019-02-15T09:44:19.344Z,18.52
2019-02-15T09:45:24.072Z,18.17
2019-02-15T09:46:28.965Z,17.67
2019-02-15T09:47:33.739Z,18.30
2019-02-15T09:48:38.793Z,18.35
2019-02-15T09:49:45.191Z,18.37
2019-02-15T09:50:50.317Z,20.50
2019-02-15T09:51:55.627Z,19.70
2019-02-15T09:53:00.576Z,19.27
2019-02-15T09:54:05.456Z,19.57
2019-02-15T09:55:10.415Z,19.23
2019-02-15T09:56:15.567Z,20.65
2019-02-15T09:57:20.281Z,19.80
2019-02-15T09:58:25.582Z,20.57
2019-02-15T09:59:30.446Z,19.17
2019-02-15T10:00:35.309Z,19.23
2019-02-15T10:01:40.086Z,19.70
2019-02-15T10:02:44.887Z,20.48
2019-02-15T10:03:49.807Z,20.02
2019-02-15T10:04:54.608Z,19.67
2019-02-15T10:05:59.517Z,19.82
2019-02-15T10:07:04.276Z,21.40
2019-02-15T10:08:09.111Z,20.40
2019-02-15T10:09:13.956Z,19.73
2019-02-15T10:10:18.778Z,20.12
2019-02-15T10:11:23.927Z,19.07
2019-02-15T10:12:28.667Z,19.48
2019-02-15T10:13:33.468Z,18.62
2019-02-15T10:14:38.188Z,19.12
2019-02-15T10:15:43.021Z,19.23
2019-02-15T10:16:48.051Z,20.10
2019-02-15T10:17:53.004Z,18.70
2019-02-15T10:18:57.818Z,18.67
2019-02-15T10:20:02.623Z,18.85
2019-02-15T10:21:07.501Z,17.32
2019-02-15T10:22:12.362Z,17.52
2019-02-15T10:23:17.258Z,18.60
2019-02-15T10:24:22.060Z,18.50
2019-02-15T10:25:27.004Z,18.60
2019-02-15T10:26:31.781Z,20.37
2019-02-15T10:27:37.916Z,20.10
2019-02-15T10:28:42.690Z,22.05
2019-02-15T10:29:47.461Z,21.52
2019-02-15T10:30:55.119Z,20.97
2019-02-15T10:32:00.297Z,22.77
2019-02-15T10:33:05.156Z,21.15
2019-02-15T10:34:10.100Z,17.67
2019-02-15T10:35:14.891Z,18.00
2019-02-15T10:36:19.978Z,30.80
2019-02-15T10:37:24.907Z,24.30
2019-02-15T10:38:29.746Z,18.60
2019-02-15T10:39:34.558Z,19.57
2019-02-15T10:40:39.445Z,19.15
2019-02-15T10:41:44.270Z,22.77
2019-02-15T10:42:49.012Z,32.00
2019-02-15T10:43:53.792Z,26.17
2019-02-15T10:44:58.549Z,31.45
2019-02-15T10:46:03.321Z,27.65
2019-02-15T10:47:13.934Z,20.40
2019-02-15T10:48:14.504Z,23.50
2019-02-15T10:49:20.715Z,19.17
2019-02-15T10:50:25.533Z,26.52
2019-02-15T10:51:32.172Z,17.50
2019-02-15T10:52:37.990Z,16.73
2019-02-15T10:53:42.732Z,16.23
2019-02-15T10:54:47.542Z,16.27
2019-02-15T10:55:52.266Z,20.32
2019-02-15T10:56:57.073Z,19.55
2019-02-15T10:58:01.883Z,21.23
2019-02-15T10:59:06.747Z,26.33
2019-02-15T11:00:16.930Z,27.80
2019-02-15T11:01:21.688Z,20.65
2019-02-15T11:02:26.495Z,21.90
2019-02-15T11:03:31.299Z,20.37
2019-02-15T11:04:36.113Z,19.95
2019-02-15T11:05:40.885Z,16.85
2019-02-15T11:06:45.719Z,20.35
2019-02-15T11:07:50.514Z,22.07
2019-02-15T11:08:55.318Z,18.70
2019-02-15T11:10:00.158Z,16.57
2019-02-15T11:11:05.001Z,16.77
2019-02-15T11:12:09.894Z,17.25
2019-02-15T11:13:14.629Z,16.77
2019-02-15T11:14:19.339Z,16.60
2019-02-15T11:15:24.092Z,17.55
2019-02-15T11:16:29.075Z,16.67
2019-02-15T11:17:33.828Z,17.35
2019-02-15T11:18:38.760Z,18.70
2019-02-15T11:19:43.505Z,16.02
2019-02-15T11:20:48.427Z,18.35
2019-02-15T11:21:53.269Z,25.55
2019-02-15T11:22:58.024Z,22.20
2019-02-15T11:24:02.858Z,18.05
2019-02-15T11:25:08.923Z,16.42
2019-02-15T11:26:13.672Z,15.65
2019-02-15T11:27:18.460Z,16.95
2019-02-15T11:28:23.197Z,18.23
2019-02-15T11:29:27.970Z,16.95
2019-02-15T11:30:32.728Z,14.73
2019-02-15T11:31:37.480Z,13.93
2019-02-15T11:32:42.472Z,13.80
2019-02-15T11:33:47.225Z,13.25
2019-02-15T11:34:51.981Z,13.30
2019-02-15T11:35:56.748Z,12.60
2019-02-15T11:37:01.921Z,13.55
2019-02-15T11:38:07.022Z,12.93
2019-02-15T11:39:12.147Z,14.75
2019-02-15T11:40:17.115Z,14.93
2019-02-15T11:41:22.040Z,15.55
2019-02-15T11:42:26.896Z,16.97
2019-02-15T11:43:31.694Z,18.02
2019-02-15T11:44:36.461Z,15.13
2019-02-15T11:45:41.262Z,14.45
2019-02-15T11:46:46.008Z,15.05
2019-02-15T11:47:50.789Z,14.60
2019-02-15T11:48:55.561Z,15.78
2019-02-15T11:50:00.375Z,15.10
2019-02-15T11:51:05.191Z,14.68
2019-02-15T11:52:10.114Z,15.25
2019-02-15T11:53:16.332Z,17.60
2019-02-15T11:54:23.665Z,16.60
2019-02-15T11:55:27.717Z,16.45
2019-02-15T11:56:32.482Z,16.40
2019-02-15T11:57:37.399Z,34.05
2019-02-15T11:58:42.148Z,33.95
2019-02-15T12:03:07.712Z,47.25
2019-02-15T12:04:12.835Z,24.35
2019-02-15T12:05:17.990Z,21.62
2019-02-15T12:06:23.019Z,18.92
2019-02-15T12:07:28.010Z,19.95
2019-02-15T12:08:32.957Z,16.52
2019-02-15T12:09:37.915Z,17.40
2019-02-15T12:10:43.047Z,18.05
2019-02-15T12:11:47.988Z,17.27
2019-02-15T12:12:53.101Z,17.23
2019-02-15T12:13:58.124Z,20.68
2019-02-15T12:15:03.099Z,22.70
2019-02-15T12:16:08.650Z,20.90
2019-02-15T12:17:16.359Z,18.73
2019-02-15T12:18:21.149Z,16.00
2019-02-15T12:19:26.564Z,17.90
2019-02-15T12:20:31.719Z,21.90
2019-02-15T12:21:36.966Z,31.93
2019-02-15T12:22:42.042Z,32.38
2019-02-15T12:23:47.040Z,25.95
2019-02-15T12:24:52.008Z,17.92
2019-02-15T12:25:57.164Z,19.42
2019-02-15T12:27:02.103Z,17.27
2019-02-15T12:28:07.108Z,16.75
2019-02-15T12:29:12.239Z,17.00
2019-02-15T12:30:17.437Z,16.73
2019-02-15T12:31:22.396Z,16.73
2019-02-15T12:32:27.563Z,17.40
2019-02-15T12:33:32.716Z,17.40
2019-02-15T12:34:37.677Z,16.48
2019-02-15T12:35:42.885Z,18.67
2019-02-15T12:36:48.186Z,17.45
2019-02-15T12:37:53.241Z,18.20
2019-02-15T12:38:58.536Z,14.70
2019-02-15T12:40:03.839Z,14.98
2019-02-15T12:41:08.966Z,16.93
2019-02-15T12:42:13.925Z,17.40
2019-02-15T12:43:19.089Z,16.70
2019-02-15T12:44:24.092Z,16.30
2019-02-15T12:45:29.235Z,17.80
2019-02-15T12:46:34.084Z,17.50
2019-02-15T12:47:38.999Z,17.80
2019-02-15T12:48:44.089Z,28.70
2019-02-15T12:49:49.308Z,18.25
2019-02-15T12:50:54.573Z,15.30
2019-02-15T12:51:59.601Z,14.98
2019-02-15T12:53:04.798Z,15.98
2019-02-15T12:54:10.167Z,15.58
2019-02-15T12:55:15.208Z,15.65
2019-02-15T12:56:20.315Z,17.52
2019-02-15T12:57:25.608Z,15.48
2019-02-15T12:58:31.356Z,15.65
2019-02-15T12:59:36.674Z,15.85
2019-02-15T13:00:41.708Z,14.80
2019-02-15T13:01:46.805Z,15.05
2019-02-15T13:02:51.888Z,14.65
2019-02-15T13:03:56.877Z,14.65
2019-02-15T13:05:02.003Z,14.25
2019-02-15T13:06:07.457Z,14.30
2019-02-15T13:07:12.557Z,16.00
2019-02-15T13:08:17.930Z,13.25
2019-02-15T13:09:22.879Z,13.10
2019-02-15T13:10:28.414Z,13.22
2019-02-15T13:11:33.277Z,13.50
2019-02-15T13:12:38.117Z,13.78
2019-02-15T13:13:43.097Z,12.35
2019-02-15T13:14:48.156Z,12.10
2019-02-15T13:15:53.044Z,11.93
2019-02-15T13:16:57.903Z,12.73
2019-02-15T13:18:02.780Z,12.13
2019-02-15T13:19:07.776Z,12.75
2019-02-15T13:20:12.792Z,11.70
2019-02-15T13:21:17.689Z,11.78
2019-02-15T13:22:22.624Z,11.68
2019-02-15T13:23:27.455Z,11.83
2019-02-15T13:24:32.218Z,12.45
2019-02-15T13:25:37.260Z,12.80
2019-02-15T13:26:42.275Z,14.10
2019-02-15T13:27:47.078Z,13.60
2019-02-15T13:28:52.050Z,14.07
2019-02-15T13:29:56.891Z,15.50
2019-02-15T13:31:01.670Z,14.58
2019-02-15T13:32:06.695Z,15.70
2019-02-15T13:33:11.495Z,15.45
2019-02-15T13:34:16.450Z,18.23
2019-02-15T13:35:21.434Z,15.08
2019-02-15T13:36:26.269Z,18.00
2019-02-15T13:37:31.170Z,17.57
2019-02-15T13:38:36.216Z,17.52
2019-02-15T13:39:41.134Z,15.32
2019-02-15T13:40:45.953Z,14.00
2019-02-15T13:41:50.733Z,14.73
2019-02-15T13:42:55.554Z,14.58
2019-02-15T13:44:01.973Z,13.62
2019-02-15T13:45:07.969Z,14.50
2019-02-15T13:46:12.969Z,13.53
2019-02-15T13:47:17.809Z,12.68
2019-02-15T13:48:22.589Z,13.40
2019-02-15T13:49:27.399Z,13.90
2019-02-15T13:50:32.248Z,12.88
2019-02-15T13:51:37.186Z,12.70
2019-02-15T13:52:42.248Z,11.55
2019-02-15T13:53:47.139Z,11.97
2019-02-15T13:54:51.976Z,12.90
2019-02-15T13:55:56.932Z,14.23
2019-02-15T13:57:01.947Z,13.80
2019-02-15T13:58:06.888Z,13.83
2019-02-15T13:59:11.926Z,15.30
2019-02-15T14:00:17.161Z,13.58
2019-02-15T14:01:22.048Z,15.05
2019-02-15T14:02:26.938Z,15.10
2019-02-15T14:03:33.792Z,15.00
2019-02-15T14:04:39.281Z,17.35
2019-02-15T14:05:45.080Z,17.23
2019-02-15T14:06:59.188Z,21.97
2019-02-15T14:08:04.168Z,17.67
2019-02-15T14:09:09.250Z,19.30
2019-02-15T14:10:14.169Z,19.27
2019-02-15T14:11:19.070Z,18.65
2019-02-15T14:12:23.937Z,18.87
2019-02-15T14:13:28.728Z,20.20
2019-02-15T14:14:33.862Z,18.07
2019-02-15T14:15:38.848Z,20.25
2019-02-15T14:16:43.730Z,18.15
2019-02-15T14:17:49.000Z,16.30
2019-02-15T14:18:54.038Z,15.58
2019-02-15T14:20:00.349Z,14.98